sensor_id;sensor_type;location;lat;lon;timestamp;temperature;humidity
2054;DHT22;1032;52.542;13.440;2023-06-19T00:00:00;21.00;94.60
2054;DHT22;1032;52.542;13.440;2023-06-19T00:02:37;21.00;94.80
2054;DHT22;1032;52.542;13.440;2023-06-19T00:05:04;21.00;94.90
2054;DHT22;1032;52.542;13.440;2023-06-19T00:07:31;21.00;95.00
2054;DHT22;1032;52.542;13.440;2023-06-19T00:09:57;20.90;95.10
2054;DHT22;1032;52.542;13.440;2023-06-19T00:12:25;20.90;95.30
2054;DHT22;1032;52.542;13.440;2023-06-19T00:14:52;20.90;95.40
2054;DHT22;1032;52.542;13.440;2023-06-19T00:17:18;20.90;95.40
2054;DHT22;1032;52.542;13.440;2023-06-19T00:19:45;20.80;95.70
2054;DHT22;1032;52.542;13.440;2023-06-19T00:22:14;20.80;95.70
2054;DHT22;1032;52.542;13.440;2023-06-19T00:24:40;20.80;95.80
2054;DHT22;1032;52.542;13.440;2023-06-19T00:27:07;20.80;95.90
2054;DHT22;1032;52.542;13.440;2023-06-19T00:29:35;20.80;95.90
2054;DHT22;1032;52.542;13.440;2023-06-19T00:32:02;20.80;96.10
2054;DHT22;1032;52.542;13.440;2023-06-19T00:34:29;20.80;96.10
2054;DHT22;1032;52.542;13.440;2023-06-19T00:36:56;20.80;96.30
2054;DHT22;1032;52.542;13.440;2023-06-19T00:39:23;20.90;96.30
2054;DHT22;1032;52.542;13.440;2023-06-19T00:41:51;20.90;96.40
2054;DHT22;1032;52.542;13.440;2023-06-19T00:44:18;20.90;96.50
2054;DHT22;1032;52.542;13.440;2023-06-19T00:46:46;20.90;96.50
2054;DHT22;1032;52.542;13.440;2023-06-19T00:49:13;20.90;96.60
2054;DHT22;1032;52.542;13.440;2023-06-19T00:51:40;20.90;96.60
2054;DHT22;1032;52.542;13.440;2023-06-19T00:54:07;20.90;96.70
2054;DHT22;1032;52.542;13.440;2023-06-19T00:56:35;20.90;96.70
2054;DHT22;1032;52.542;13.440;2023-06-19T00:59:09;20.90;96.80
2054;DHT22;1032;52.542;13.440;2023-06-19T01:01:37;20.90;96.80
2054;DHT22;1032;52.542;13.440;2023-06-19T01:04:05;20.90;96.90
2054;DHT22;1032;52.542;13.440;2023-06-19T01:06:38;20.90;96.90
2054;DHT22;1032;52.542;13.440;2023-06-19T01:09:09;21.00;97.00
2054;DHT22;1032;52.542;13.440;2023-06-19T01:11:41;20.90;97.00
2054;DHT22;1032;52.542;13.440;2023-06-19T01:14:15;20.90;97.10
2054;DHT22;1032;52.542;13.440;2023-06-19T01:16:43;20.90;97.10
2054;DHT22;1032;52.542;13.440;2023-06-19T01:19:15;20.90;97.10
2054;DHT22;1032;52.542;13.440;2023-06-19T01:21:44;20.90;97.20
2054;DHT22;1032;52.542;13.440;2023-06-19T01:24:12;20.90;97.20
2054;DHT22;1032;52.542;13.440;2023-06-19T01:26:39;20.90;97.20
2054;DHT22;1032;52.542;13.440;2023-06-19T01:29:06;20.90;97.30
2054;DHT22;1032;52.542;13.440;2023-06-19T01:31:35;20.80;97.30
2054;DHT22;1032;52.542;13.440;2023-06-19T01:34:05;20.80;97.40
2054;DHT22;1032;52.542;13.440;2023-06-19T01:36:33;20.80;97.40
2054;DHT22;1032;52.542;13.440;2023-06-19T01:39:00;20.70;97.50
2054;DHT22;1032;52.542;13.440;2023-06-19T01:41:30;20.70;97.60
2054;DHT22;1032;52.542;13.440;2023-06-19T01:43:57;20.70;97.60
2054;DHT22;1032;52.542;13.440;2023-06-19T01:46:27;20.70;97.70
2054;DHT22;1032;52.542;13.440;2023-06-19T01:48:57;20.70;97.80
2054;DHT22;1032;52.542;13.440;2023-06-19T01:51:25;20.70;97.80
2054;DHT22;1032;52.542;13.440;2023-06-19T01:53:51;20.70;97.90
2054;DHT22;1032;52.542;13.440;2023-06-19T01:56:18;20.80;98.00
2054;DHT22;1032;52.542;13.440;2023-06-19T01:58:46;20.70;98.00
2054;DHT22;1032;52.542;13.440;2023-06-19T02:01:13;20.70;98.00
2054;DHT22;1032;52.542;13.440;2023-06-19T02:03:39;20.70;98.10
2054;DHT22;1032;52.542;13.440;2023-06-19T02:06:06;20.60;98.10
2054;DHT22;1032;52.542;13.440;2023-06-19T02:08:32;20.40;98.00
2054;DHT22;1032;52.542;13.440;2023-06-19T02:10:59;20.60;98.20
2054;DHT22;1032;52.542;13.440;2023-06-19T02:13:25;20.60;98.20
2054;DHT22;1032;52.542;13.440;2023-06-19T02:15:53;20.70;98.20
2054;DHT22;1032;52.542;13.440;2023-06-19T02:18:23;20.60;98.20
2054;DHT22;1032;52.542;13.440;2023-06-19T02:20:51;20.60;98.20
2054;DHT22;1032;52.542;13.440;2023-06-19T02:23:17;20.60;98.20
2054;DHT22;1032;52.542;13.440;2023-06-19T02:25:44;20.50;98.20
2054;DHT22;1032;52.542;13.440;2023-06-19T02:28:11;20.60;98.20
2054;DHT22;1032;52.542;13.440;2023-06-19T02:30:37;20.70;98.30
2054;DHT22;1032;52.542;13.440;2023-06-19T02:33:05;20.60;98.20
2054;DHT22;1032;52.542;13.440;2023-06-19T02:35:32;20.60;98.20
2054;DHT22;1032;52.542;13.440;2023-06-19T02:37:58;20.60;98.20
2054;DHT22;1032;52.542;13.440;2023-06-19T02:40:25;20.00;97.90
2054;DHT22;1032;52.542;13.440;2023-06-19T02:42:52;20.60;98.20
2054;DHT22;1032;52.542;13.440;2023-06-19T02:45:19;20.60;98.20
2054;DHT22;1032;52.542;13.440;2023-06-19T02:47:47;20.60;98.60
2054;DHT22;1032;52.542;13.440;2023-06-19T02:50:15;20.60;98.30
2054;DHT22;1032;52.542;13.440;2023-06-19T02:52:41;20.70;98.40
2054;DHT22;1032;52.542;13.440;2023-06-19T02:55:08;20.90;98.50
2054;DHT22;1032;52.542;13.440;2023-06-19T02:57:35;20.70;98.40
2054;DHT22;1032;52.542;13.440;2023-06-19T03:00:02;20.90;98.50
2054;DHT22;1032;52.542;13.440;2023-06-19T03:02:31;20.70;98.40
2054;DHT22;1032;52.542;13.440;2023-06-19T03:04:59;20.90;98.50
2054;DHT22;1032;52.542;13.440;2023-06-19T03:07:27;20.70;98.40
2054;DHT22;1032;52.542;13.440;2023-06-19T03:09:54;20.70;98.40
2054;DHT22;1032;52.542;13.440;2023-06-19T03:12:21;20.90;98.50
2054;DHT22;1032;52.542;13.440;2023-06-19T03:14:48;20.80;98.30
2054;DHT22;1032;52.542;13.440;2023-06-19T03:17:14;20.80;98.30
2054;DHT22;1032;52.542;13.440;2023-06-19T03:19:41;21.20;98.50
2054;DHT22;1032;52.542;13.440;2023-06-19T03:22:08;20.80;98.20
2054;DHT22;1032;52.542;13.440;2023-06-19T03:24:36;21.00;98.30
2054;DHT22;1032;52.542;13.440;2023-06-19T03:27:19;20.80;98.10
2054;DHT22;1032;52.542;13.440;2023-06-19T03:29:45;20.90;98.20
2054;DHT22;1032;52.542;13.440;2023-06-19T03:32:18;20.90;98.10
2054;DHT22;1032;52.542;13.440;2023-06-19T03:34:46;20.90;98.30
2054;DHT22;1032;52.542;13.440;2023-06-19T03:37:14;21.30;98.10
2054;DHT22;1032;52.542;13.440;2023-06-19T03:39:43;21.10;97.90
2054;DHT22;1032;52.542;13.440;2023-06-19T03:42:11;21.10;97.80
2054;DHT22;1032;52.542;13.440;2023-06-19T03:44:37;21.10;97.70
2054;DHT22;1032;52.542;13.440;2023-06-19T03:47:05;21.20;97.70
2054;DHT22;1032;52.542;13.440;2023-06-19T03:49:31;21.10;97.60
2054;DHT22;1032;52.542;13.440;2023-06-19T03:51:58;21.10;97.50
2054;DHT22;1032;52.542;13.440;2023-06-19T03:54:25;21.10;97.50
2054;DHT22;1032;52.542;13.440;2023-06-19T03:56:53;21.20;97.50
2054;DHT22;1032;52.542;13.440;2023-06-19T03:59:19;21.20;97.40
2054;DHT22;1032;52.542;13.440;2023-06-19T04:01:46;21.20;97.40
2054;DHT22;1032;52.542;13.440;2023-06-19T04:04:13;21.20;97.30
2054;DHT22;1032;52.542;13.440;2023-06-19T04:06:39;21.40;97.40
2054;DHT22;1032;52.542;13.440;2023-06-19T04:09:06;21.20;97.30
2054;DHT22;1032;52.542;13.440;2023-06-19T04:11:32;21.20;97.30
2054;DHT22;1032;52.542;13.440;2023-06-19T04:14:01;21.20;97.40
2054;DHT22;1032;52.542;13.440;2023-06-19T04:16:29;20.90;97.20
2054;DHT22;1032;52.542;13.440;2023-06-19T04:18:55;21.20;97.30
2054;DHT22;1032;52.542;13.440;2023-06-19T04:21:22;21.20;97.20
2054;DHT22;1032;52.542;13.440;2023-06-19T04:23:50;21.20;97.20
2054;DHT22;1032;52.542;13.440;2023-06-19T04:26:16;21.20;97.20
2054;DHT22;1032;52.542;13.440;2023-06-19T04:28:44;21.20;97.20
2054;DHT22;1032;52.542;13.440;2023-06-19T04:31:12;21.20;97.10
2054;DHT22;1032;52.542;13.440;2023-06-19T04:33:43;21.20;97.10
2054;DHT22;1032;52.542;13.440;2023-06-19T04:36:10;21.70;97.30
2054;DHT22;1032;52.542;13.440;2023-06-19T04:38:36;21.30;97.10
2054;DHT22;1032;52.542;13.440;2023-06-19T04:41:03;21.30;97.00
2054;DHT22;1032;52.542;13.440;2023-06-19T04:43:29;21.30;97.10
2054;DHT22;1032;52.542;13.440;2023-06-19T04:45:56;21.30;97.00
2054;DHT22;1032;52.542;13.440;2023-06-19T04:48:24;21.40;97.00
2054;DHT22;1032;52.542;13.440;2023-06-19T04:50:51;21.40;97.00
2054;DHT22;1032;52.542;13.440;2023-06-19T04:53:18;21.10;96.80
2054;DHT22;1032;52.542;13.440;2023-06-19T04:55:45;21.40;97.00
2054;DHT22;1032;52.542;13.440;2023-06-19T04:58:11;21.60;97.10
2054;DHT22;1032;52.542;13.440;2023-06-19T05:00:38;21.40;96.90
2054;DHT22;1032;52.542;13.440;2023-06-19T05:03:04;21.40;96.90
2054;DHT22;1032;52.542;13.440;2023-06-19T05:05:32;21.50;96.90
2054;DHT22;1032;52.542;13.440;2023-06-19T05:08:00;21.50;97.00
2054;DHT22;1032;52.542;13.440;2023-06-19T05:10:27;21.40;96.80
2054;DHT22;1032;52.542;13.440;2023-06-19T05:12:54;21.50;96.80
2054;DHT22;1032;52.542;13.440;2023-06-19T05:15:20;21.50;96.50
2054;DHT22;1032;52.542;13.440;2023-06-19T05:17:47;21.30;96.70
2054;DHT22;1032;52.542;13.440;2023-06-19T05:20:13;21.50;96.80
2054;DHT22;1032;52.542;13.440;2023-06-19T05:22:42;21.50;96.90
2054;DHT22;1032;52.542;13.440;2023-06-19T05:25:09;21.40;96.90
2054;DHT22;1032;52.542;13.440;2023-06-19T05:27:35;21.50;96.90
2054;DHT22;1032;52.542;13.440;2023-06-19T05:30:03;21.50;96.90
2054;DHT22;1032;52.542;13.440;2023-06-19T05:32:30;21.50;96.90
2054;DHT22;1032;52.542;13.440;2023-06-19T05:34:56;21.50;96.90
2054;DHT22;1032;52.542;13.440;2023-06-19T05:37:23;21.60;96.90
2054;DHT22;1032;52.542;13.440;2023-06-19T05:39:51;21.60;96.90
2054;DHT22;1032;52.542;13.440;2023-06-19T05:42:17;21.50;96.80
2054;DHT22;1032;52.542;13.440;2023-06-19T05:44:44;21.40;96.80
2054;DHT22;1032;52.542;13.440;2023-06-19T05:47:11;21.60;96.90
2054;DHT22;1032;52.542;13.440;2023-06-19T05:49:37;21.60;96.90
2054;DHT22;1032;52.542;13.440;2023-06-19T05:52:07;21.60;96.90
2054;DHT22;1032;52.542;13.440;2023-06-19T05:54:33;21.70;96.90
2054;DHT22;1032;52.542;13.440;2023-06-19T05:57:01;22.00;97.00
2054;DHT22;1032;52.542;13.440;2023-06-19T05:59:28;21.70;96.90
2054;DHT22;1032;52.542;13.440;2023-06-19T06:01:54;21.70;96.90
2054;DHT22;1032;52.542;13.440;2023-06-19T06:04:21;21.80;97.00
2054;DHT22;1032;52.542;13.440;2023-06-19T06:06:48;21.80;96.90
2054;DHT22;1032;52.542;13.440;2023-06-19T06:09:15;21.80;96.80
2054;DHT22;1032;52.542;13.440;2023-06-19T06:11:42;21.80;96.90
2054;DHT22;1032;52.542;13.440;2023-06-19T06:14:09;21.80;96.90
2054;DHT22;1032;52.542;13.440;2023-06-19T06:16:36;21.80;96.90
2054;DHT22;1032;52.542;13.440;2023-06-19T06:19:03;21.90;96.90
2054;DHT22;1032;52.542;13.440;2023-06-19T06:21:29;21.90;96.80
2054;DHT22;1032;52.542;13.440;2023-06-19T06:23:56;21.90;96.80
2054;DHT22;1032;52.542;13.440;2023-06-19T06:26:22;21.90;97.00
2054;DHT22;1032;52.542;13.440;2023-06-19T06:28:49;21.90;96.60
2054;DHT22;1032;52.542;13.440;2023-06-19T06:31:17;22.00;96.70
2054;DHT22;1032;52.542;13.440;2023-06-19T06:33:44;22.00;96.60
2054;DHT22;1032;52.542;13.440;2023-06-19T06:36:10;22.10;96.60
2054;DHT22;1032;52.542;13.440;2023-06-19T06:38:37;22.10;96.50
2054;DHT22;1032;52.542;13.440;2023-06-19T06:41:03;22.20;96.40
2054;DHT22;1032;52.542;13.440;2023-06-19T06:43:30;22.30;96.40
2054;DHT22;1032;52.542;13.440;2023-06-19T06:45:56;22.30;96.30
2054;DHT22;1032;52.542;13.440;2023-06-19T06:48:24;22.30;96.20
2054;DHT22;1032;52.542;13.440;2023-06-19T06:50:51;22.40;96.10
2054;DHT22;1032;52.542;13.440;2023-06-19T06:53:24;22.40;96.00
2054;DHT22;1032;52.542;13.440;2023-06-19T06:55:51;22.50;96.00
2054;DHT22;1032;52.542;13.440;2023-06-19T06:58:17;22.50;95.90
2054;DHT22;1032;52.542;13.440;2023-06-19T07:00:44;22.60;95.80
2054;DHT22;1032;52.542;13.440;2023-06-19T07:03:11;22.60;95.70
2054;DHT22;1032;52.542;13.440;2023-06-19T07:05:39;22.30;95.40
2054;DHT22;1032;52.542;13.440;2023-06-19T07:08:06;22.70;95.50
2054;DHT22;1032;52.542;13.440;2023-06-19T07:10:33;22.80;95.50
2054;DHT22;1032;52.542;13.440;2023-06-19T07:12:59;22.90;95.40
2054;DHT22;1032;52.542;13.440;2023-06-19T07:15:26;23.00;95.40
2054;DHT22;1032;52.542;13.440;2023-06-19T07:17:53;23.10;95.30
2054;DHT22;1032;52.542;13.440;2023-06-19T07:20:20;23.10;95.10
2054;DHT22;1032;52.542;13.440;2023-06-19T07:22:50;23.20;95.00
2054;DHT22;1032;52.542;13.440;2023-06-19T07:25:17;23.40;94.90
2054;DHT22;1032;52.542;13.440;2023-06-19T07:27:44;23.40;94.80
2054;DHT22;1032;52.542;13.440;2023-06-19T07:30:11;23.40;94.70
2054;DHT22;1032;52.542;13.440;2023-06-19T07:32:38;23.50;94.60
2054;DHT22;1032;52.542;13.440;2023-06-19T07:35:05;23.50;94.40
2054;DHT22;1032;52.542;13.440;2023-06-19T07:37:32;23.50;94.30
2054;DHT22;1032;52.542;13.440;2023-06-19T07:40:00;23.60;94.20
2054;DHT22;1032;52.542;13.440;2023-06-19T07:42:27;23.70;94.10
2054;DHT22;1032;52.542;13.440;2023-06-19T07:44:53;23.80;94.00
2054;DHT22;1032;52.542;13.440;2023-06-19T07:47:20;24.20;94.00
2054;DHT22;1032;52.542;13.440;2023-06-19T07:49:47;24.00;93.80
2054;DHT22;1032;52.542;13.440;2023-06-19T07:52:13;24.00;93.70
2054;DHT22;1032;52.542;13.440;2023-06-19T07:54:51;24.20;93.60
2054;DHT22;1032;52.542;13.440;2023-06-19T07:57:19;24.30;93.40
2054;DHT22;1032;52.542;13.440;2023-06-19T07:59:46;24.30;93.30
2054;DHT22;1032;52.542;13.440;2023-06-19T08:02:13;24.30;93.10
2054;DHT22;1032;52.542;13.440;2023-06-19T08:04:39;24.20;93.00
2054;DHT22;1032;52.542;13.440;2023-06-19T08:07:06;24.30;93.00
2054;DHT22;1032;52.542;13.440;2023-06-19T08:09:33;24.10;93.00
2054;DHT22;1032;52.542;13.440;2023-06-19T08:12:00;24.30;93.00
2054;DHT22;1032;52.542;13.440;2023-06-19T08:14:28;24.30;93.00
2054;DHT22;1032;52.542;13.440;2023-06-19T08:16:55;24.40;92.90
2054;DHT22;1032;52.542;13.440;2023-06-19T08:19:22;24.50;92.80
2054;DHT22;1032;52.542;13.440;2023-06-19T08:21:48;24.40;92.70
2054;DHT22;1032;52.542;13.440;2023-06-19T08:24:15;24.20;92.50
2054;DHT22;1032;52.542;13.440;2023-06-19T08:26:42;24.50;92.60
2054;DHT22;1032;52.542;13.440;2023-06-19T08:29:09;24.30;92.50
2054;DHT22;1032;52.542;13.440;2023-06-19T08:31:37;24.50;92.50
2054;DHT22;1032;52.542;13.440;2023-06-19T08:34:03;24.50;92.40
2054;DHT22;1032;52.542;13.440;2023-06-19T08:36:33;24.60;92.50
2054;DHT22;1032;52.542;13.440;2023-06-19T08:39:00;24.70;92.40
2054;DHT22;1032;52.542;13.440;2023-06-19T08:41:26;24.50;92.10
2054;DHT22;1032;52.542;13.440;2023-06-19T08:43:54;24.70;92.20
2054;DHT22;1032;52.542;13.440;2023-06-19T08:46:21;24.70;92.10
2054;DHT22;1032;52.542;13.440;2023-06-19T08:48:54;24.70;92.00
2054;DHT22;1032;52.542;13.440;2023-06-19T08:51:21;24.70;91.90
2054;DHT22;1032;52.542;13.440;2023-06-19T08:53:53;24.80;91.80
2054;DHT22;1032;52.542;13.440;2023-06-19T08:56:20;24.90;91.60
2054;DHT22;1032;52.542;13.440;2023-06-19T08:58:47;24.90;91.50
2054;DHT22;1032;52.542;13.440;2023-06-19T09:01:17;24.90;91.50
2054;DHT22;1032;52.542;13.440;2023-06-19T09:03:44;25.00;91.40
2054;DHT22;1032;52.542;13.440;2023-06-19T09:06:15;25.00;91.50
2054;DHT22;1032;52.542;13.440;2023-06-19T09:08:41;25.00;91.70
2054;DHT22;1032;52.542;13.440;2023-06-19T09:11:08;24.70;91.60
2054;DHT22;1032;52.542;13.440;2023-06-19T09:13:35;24.90;92.00
2054;DHT22;1032;52.542;13.440;2023-06-19T09:16:03;24.80;92.10
2054;DHT22;1032;52.542;13.440;2023-06-19T09:18:31;24.80;92.20
2054;DHT22;1032;52.542;13.440;2023-06-19T09:20:59;24.60;92.20
2054;DHT22;1032;52.542;13.440;2023-06-19T09:23:27;24.70;92.10
2054;DHT22;1032;52.542;13.440;2023-06-19T09:25:58;24.80;92.10
2054;DHT22;1032;52.542;13.440;2023-06-19T09:28:27;24.90;92.20
2054;DHT22;1032;52.542;13.440;2023-06-19T09:30:54;25.00;92.00
2054;DHT22;1032;52.542;13.440;2023-06-19T09:33:23;25.10;91.80
2054;DHT22;1032;52.542;13.440;2023-06-19T09:35:50;25.10;91.70
2054;DHT22;1032;52.542;13.440;2023-06-19T09:38:17;25.20;91.70
2054;DHT22;1032;52.542;13.440;2023-06-19T09:40:47;25.30;91.40
2054;DHT22;1032;52.542;13.440;2023-06-19T09:43:19;25.40;91.10
2054;DHT22;1032;52.542;13.440;2023-06-19T09:45:48;25.50;90.80
2054;DHT22;1032;52.542;13.440;2023-06-19T09:48:19;25.50;90.70
2054;DHT22;1032;52.542;13.440;2023-06-19T09:50:54;25.60;90.50
2054;DHT22;1032;52.542;13.440;2023-06-19T09:53:24;25.70;90.40
2054;DHT22;1032;52.542;13.440;2023-06-19T09:55:53;25.50;90.20
2054;DHT22;1032;52.542;13.440;2023-06-19T09:58:21;25.90;90.20
2054;DHT22;1032;52.542;13.440;2023-06-19T10:00:49;26.00;90.00
2054;DHT22;1032;52.542;13.440;2023-06-19T10:03:16;26.20;89.90
2054;DHT22;1032;52.542;13.440;2023-06-19T10:05:43;26.20;89.60
2054;DHT22;1032;52.542;13.440;2023-06-19T10:08:10;26.30;89.10
2054;DHT22;1032;52.542;13.440;2023-06-19T10:10:46;26.40;89.00
2054;DHT22;1032;52.542;13.440;2023-06-19T10:13:15;26.60;88.50
2054;DHT22;1032;52.542;13.440;2023-06-19T10:15:43;26.60;88.50
2054;DHT22;1032;52.542;13.440;2023-06-19T10:18:13;26.70;88.30
2054;DHT22;1032;52.542;13.440;2023-06-19T10:20:42;26.70;87.90
2054;DHT22;1032;52.542;13.440;2023-06-19T10:23:11;26.70;87.80
2054;DHT22;1032;52.542;13.440;2023-06-19T10:25:41;26.70;87.40
2054;DHT22;1032;52.542;13.440;2023-06-19T10:28:19;26.80;87.30
2054;DHT22;1032;52.542;13.440;2023-06-19T10:30:52;26.90;87.20
2054;DHT22;1032;52.542;13.440;2023-06-19T10:33:19;27.00;86.70
2054;DHT22;1032;52.542;13.440;2023-06-19T10:35:46;26.90;86.20
2054;DHT22;1032;52.542;13.440;2023-06-19T10:38:15;27.10;85.90
2054;DHT22;1032;52.542;13.440;2023-06-19T10:40:42;27.20;85.60
2054;DHT22;1032;52.542;13.440;2023-06-19T10:43:08;27.30;85.20
2054;DHT22;1032;52.542;13.440;2023-06-19T10:45:37;27.30;84.90
2054;DHT22;1032;52.542;13.440;2023-06-19T10:48:05;27.30;84.70
2054;DHT22;1032;52.542;13.440;2023-06-19T10:50:34;27.40;84.80
2054;DHT22;1032;52.542;13.440;2023-06-19T10:53:04;27.40;84.80
2054;DHT22;1032;52.542;13.440;2023-06-19T10:55:32;27.40;84.50
2054;DHT22;1032;52.542;13.440;2023-06-19T10:57:58;27.40;84.80
2054;DHT22;1032;52.542;13.440;2023-06-19T11:00:27;27.40;84.90
2054;DHT22;1032;52.542;13.440;2023-06-19T11:02:56;27.40;85.10
2054;DHT22;1032;52.542;13.440;2023-06-19T11:05:25;27.50;85.20
2054;DHT22;1032;52.542;13.440;2023-06-19T11:07:53;27.50;85.00
2054;DHT22;1032;52.542;13.440;2023-06-19T11:10:21;27.40;84.50
2054;DHT22;1032;52.542;13.440;2023-06-19T11:12:48;27.50;84.70
2054;DHT22;1032;52.542;13.440;2023-06-19T11:15:15;27.50;85.70
2054;DHT22;1032;52.542;13.440;2023-06-19T11:17:42;27.50;84.90
2054;DHT22;1032;52.542;13.440;2023-06-19T11:20:13;27.40;84.50
2054;DHT22;1032;52.542;13.440;2023-06-19T11:22:41;27.50;83.90
2054;DHT22;1032;52.542;13.440;2023-06-19T11:25:09;27.60;83.30
2054;DHT22;1032;52.542;13.440;2023-06-19T11:27:39;27.70;82.60
2054;DHT22;1032;52.542;13.440;2023-06-19T11:30:07;27.80;82.00
2054;DHT22;1032;52.542;13.440;2023-06-19T11:32:36;27.90;81.50
2054;DHT22;1032;52.542;13.440;2023-06-19T11:35:08;28.00;81.10
2054;DHT22;1032;52.542;13.440;2023-06-19T11:37:37;28.10;80.60
2054;DHT22;1032;52.542;13.440;2023-06-19T11:40:07;28.30;80.30
2054;DHT22;1032;52.542;13.440;2023-06-19T11:42:45;28.30;79.20
2054;DHT22;1032;52.542;13.440;2023-06-19T11:45:12;28.20;78.60
2054;DHT22;1032;52.542;13.440;2023-06-19T11:47:39;28.30;78.40
2054;DHT22;1032;52.542;13.440;2023-06-19T11:50:07;28.40;77.70
2054;DHT22;1032;52.542;13.440;2023-06-19T11:52:35;28.50;77.20
2054;DHT22;1032;52.542;13.440;2023-06-19T11:55:02;28.60;77.10
2054;DHT22;1032;52.542;13.440;2023-06-19T11:57:29;28.50;76.30
2054;DHT22;1032;52.542;13.440;2023-06-19T11:59:55;28.50;76.00
2054;DHT22;1032;52.542;13.440;2023-06-19T12:02:22;28.40;75.90
2054;DHT22;1032;52.542;13.440;2023-06-19T12:04:49;28.40;75.80
2054;DHT22;1032;52.542;13.440;2023-06-19T12:07:15;28.30;75.80
2054;DHT22;1032;52.542;13.440;2023-06-19T12:09:43;28.30;75.80
2054;DHT22;1032;52.542;13.440;2023-06-19T12:12:10;28.20;75.80
2054;DHT22;1032;52.542;13.440;2023-06-19T12:14:37;28.20;76.20
2054;DHT22;1032;52.542;13.440;2023-06-19T12:17:05;28.10;76.30
2054;DHT22;1032;52.542;13.440;2023-06-19T12:19:31;28.10;76.10
2054;DHT22;1032;52.542;13.440;2023-06-19T12:21:58;28.10;76.00
2054;DHT22;1032;52.542;13.440;2023-06-19T12:24:25;28.10;75.30
2054;DHT22;1032;52.542;13.440;2023-06-19T12:26:53;28.20;74.60
2054;DHT22;1032;52.542;13.440;2023-06-19T12:29:19;28.30;74.40
2054;DHT22;1032;52.542;13.440;2023-06-19T12:31:47;28.40;73.60
2054;DHT22;1032;52.542;13.440;2023-06-19T12:34:13;28.50;72.50
2054;DHT22;1032;52.542;13.440;2023-06-19T12:36:40;28.60;72.30
2054;DHT22;1032;52.542;13.440;2023-06-19T12:39:07;28.60;71.90
2054;DHT22;1032;52.542;13.440;2023-06-19T12:41:40;28.80;71.60
2054;DHT22;1032;52.542;13.440;2023-06-19T12:44:08;28.60;70.40
2054;DHT22;1032;52.542;13.440;2023-06-19T12:46:35;28.70;69.90
2054;DHT22;1032;52.542;13.440;2023-06-19T12:49:01;28.70;70.40
2054;DHT22;1032;52.542;13.440;2023-06-19T12:51:28;28.60;69.40
2054;DHT22;1032;52.542;13.440;2023-06-19T12:53:54;28.50;68.00
2054;DHT22;1032;52.542;13.440;2023-06-19T12:56:21;28.50;67.60
2054;DHT22;1032;52.542;13.440;2023-06-19T12:58:49;28.40;68.60
2054;DHT22;1032;52.542;13.440;2023-06-19T13:01:20;28.40;69.10
2054;DHT22;1032;52.542;13.440;2023-06-19T13:03:47;28.50;68.90
2054;DHT22;1032;52.542;13.440;2023-06-19T13:06:13;28.20;68.90
2054;DHT22;1032;52.542;13.440;2023-06-19T13:08:40;28.40;69.40
2054;DHT22;1032;52.542;13.440;2023-06-19T13:11:07;28.40;69.10
2054;DHT22;1032;52.542;13.440;2023-06-19T13:13:33;28.30;69.00
2054;DHT22;1032;52.542;13.440;2023-06-19T13:16:00;28.40;68.70
2054;DHT22;1032;52.542;13.440;2023-06-19T13:18:28;28.40;68.70
2054;DHT22;1032;52.542;13.440;2023-06-19T13:20:55;28.50;68.40
2054;DHT22;1032;52.542;13.440;2023-06-19T13:23:21;28.60;68.30
2054;DHT22;1032;52.542;13.440;2023-06-19T13:25:48;28.80;69.50
2054;DHT22;1032;52.542;13.440;2023-06-19T13:28:15;28.80;68.80
2054;DHT22;1032;52.542;13.440;2023-06-19T13:30:42;28.80;68.40
2054;DHT22;1032;52.542;13.440;2023-06-19T13:33:08;28.90;67.70
2054;DHT22;1032;52.542;13.440;2023-06-19T13:35:37;28.90;67.40
2054;DHT22;1032;52.542;13.440;2023-06-19T13:38:04;28.90;66.50
2054;DHT22;1032;52.542;13.440;2023-06-19T13:40:31;28.80;65.50
2054;DHT22;1032;52.542;13.440;2023-06-19T13:42:58;28.80;65.60
2054;DHT22;1032;52.542;13.440;2023-06-19T13:45:26;28.70;65.60
2054;DHT22;1032;52.542;13.440;2023-06-19T13:47:52;28.70;65.00
2054;DHT22;1032;52.542;13.440;2023-06-19T13:50:19;28.70;65.00
2054;DHT22;1032;52.542;13.440;2023-06-19T13:52:47;28.70;65.30
2054;DHT22;1032;52.542;13.440;2023-06-19T13:55:14;28.70;65.60
2054;DHT22;1032;52.542;13.440;2023-06-19T13:57:41;28.70;65.50
2054;DHT22;1032;52.542;13.440;2023-06-19T14:00:09;28.70;65.50
2054;DHT22;1032;52.542;13.440;2023-06-19T14:02:39;28.70;65.50
2054;DHT22;1032;52.542;13.440;2023-06-19T14:05:08;28.70;65.50
2054;DHT22;1032;52.542;13.440;2023-06-19T14:07:35;28.70;65.50
2054;DHT22;1032;52.542;13.440;2023-06-19T14:10:04;28.80;65.10
2054;DHT22;1032;52.542;13.440;2023-06-19T14:12:31;28.70;64.80
2054;DHT22;1032;52.542;13.440;2023-06-19T14:14:58;28.80;64.70
2054;DHT22;1032;52.542;13.440;2023-06-19T14:17:25;28.80;65.00
2054;DHT22;1032;52.542;13.440;2023-06-19T14:19:51;28.70;65.30
2054;DHT22;1032;52.542;13.440;2023-06-19T14:22:18;28.70;65.60
2054;DHT22;1032;52.542;13.440;2023-06-19T14:24:45;28.70;65.80
2054;DHT22;1032;52.542;13.440;2023-06-19T14:27:12;28.80;66.10
2054;DHT22;1032;52.542;13.440;2023-06-19T14:29:39;28.80;66.00
2054;DHT22;1032;52.542;13.440;2023-06-19T14:32:06;28.80;66.00
2054;DHT22;1032;52.542;13.440;2023-06-19T14:34:33;28.90;65.90
2054;DHT22;1032;52.542;13.440;2023-06-19T14:36:59;28.90;65.10
2054;DHT22;1032;52.542;13.440;2023-06-19T14:39:26;28.90;63.50
2054;DHT22;1032;52.542;13.440;2023-06-19T14:41:53;28.90;64.40
2054;DHT22;1032;52.542;13.440;2023-06-19T14:44:21;28.90;64.90
2054;DHT22;1032;52.542;13.440;2023-06-19T14:46:47;29.00;65.40
2054;DHT22;1032;52.542;13.440;2023-06-19T14:49:14;29.00;65.70
2054;DHT22;1032;52.542;13.440;2023-06-19T14:51:42;29.00;65.70
2054;DHT22;1032;52.542;13.440;2023-06-19T14:54:09;29.00;65.60
2054;DHT22;1032;52.542;13.440;2023-06-19T14:56:35;29.10;65.60
2054;DHT22;1032;52.542;13.440;2023-06-19T14:59:02;29.00;65.90
2054;DHT22;1032;52.542;13.440;2023-06-19T15:01:30;29.00;66.20
2054;DHT22;1032;52.542;13.440;2023-06-19T15:03:56;29.00;66.40
2054;DHT22;1032;52.542;13.440;2023-06-19T15:06:23;29.00;66.90
2054;DHT22;1032;52.542;13.440;2023-06-19T15:08:50;29.00;67.10
2054;DHT22;1032;52.542;13.440;2023-06-19T15:11:16;29.00;67.60
2054;DHT22;1032;52.542;13.440;2023-06-19T15:13:43;29.10;67.60
2054;DHT22;1032;52.542;13.440;2023-06-19T15:16:10;29.00;67.50
2054;DHT22;1032;52.542;13.440;2023-06-19T15:18:39;29.00;67.50
2054;DHT22;1032;52.542;13.440;2023-06-19T15:21:06;29.00;67.60
2054;DHT22;1032;52.542;13.440;2023-06-19T15:23:33;29.00;67.70
2054;DHT22;1032;52.542;13.440;2023-06-19T15:25:59;29.00;67.80
2054;DHT22;1032;52.542;13.440;2023-06-19T15:28:26;29.00;67.70
2054;DHT22;1032;52.542;13.440;2023-06-19T15:30:53;29.00;67.20
2054;DHT22;1032;52.542;13.440;2023-06-19T15:33:19;28.90;66.20
2054;DHT22;1032;52.542;13.440;2023-06-19T15:35:47;28.90;65.70
2054;DHT22;1032;52.542;13.440;2023-06-19T15:38:15;28.90;65.60
2054;DHT22;1032;52.542;13.440;2023-06-19T15:40:41;28.90;66.00
2054;DHT22;1032;52.542;13.440;2023-06-19T15:43:08;28.90;66.40
2054;DHT22;1032;52.542;13.440;2023-06-19T15:45:35;28.90;67.00